Time;durP1;ratioP1;P1;durP2;ratioP2;P2;SDS_P1;SDS_P2;PMS_P1;PMS_P2;Temp;Humidity;BMP_temperature;BMP_pressure;BME280_temperature;BME280_humidity;BME280_pressure;Samples;Min_cycle;Max_cycle;Signal;HPM_P1;HPM_P2
2023/10/18 00:01:10;;;;;;;1.85;0.73;;;;;;;2.08;74.52;99941.00;10461832;28;20067;-70
2023/10/18 00:06:16;;;;;;;0.82;0.65;;;;;;;2.01;74.14;99941.16;10470881;28;20045;-70
2023/10/18 00:11:20;;;;;;;1.35;0.60;;;;;;;1.95;73.33;99944.84;10487762;28;20059;-70
2023/10/18 00:16:23;;;;;;;0.60;0.50;;;;;;;1.89;74.22;99937.69;10486525;28;20033;-70
2023/10/18 00:21:26;;;;;;;0.73;0.50;;;;;;;1.92;74.71;99934.53;10485031;28;20635;-70
2023/10/18 00:26:29;;;;;;;2.03;0.70;;;;;;;1.95;74.45;99939.44;10450293;28;20040;-70
2023/10/18 00:31:32;;;;;;;1.52;0.70;;;;;;;1.96;74.83;99943.78;10487199;28;20041;-69
2023/10/18 00:36:35;;;;;;;1.35;0.60;;;;;;;1.97;74.44;99940.03;10465092;28;20040;-70
2023/10/18 00:41:43;;;;;;;1.30;0.80;;;;;;;2.07;74.72;99952.91;10485771;28;20060;-70
2023/10/18 00:46:46;;;;;;;2.25;0.70;;;;;;;2.00;74.90;99947.66;10484623;28;20060;-70
2023/10/18 00:51:49;;;;;;;1.33;0.70;;;;;;;1.94;75.38;99937.81;10477785;28;20400;-70
2023/10/18 00:56:52;;;;;;;1.10;0.60;;;;;;;1.89;75.77;99948.50;10484237;28;20041;-70
2023/10/18 01:01:59;;;;;;;1.05;0.47;;;;;;;1.84;75.88;99950.28;10468088;28;20049;-70
2023/10/18 01:07:15;;;;;;;3.10;0.60;;;;;;;1.83;75.99;99957.59;10462731;28;20040;-70
2023/10/18 01:12:18;;;;;;;0.65;0.43;;;;;;;1.69;75.19;99948.94;10459603;28;20040;-70
2023/10/18 01:17:20;;;;;;;0.55;0.55;;;;;;;1.77;75.69;99953.16;10468152;28;20041;-70
2023/10/18 01:22:23;;;;;;;0.85;0.60;;;;;;;1.76;74.87;99959.63;10483591;28;20041;-70
2023/10/18 01:27:27;;;;;;;1.70;0.70;;;;;;;1.70;75.26;99950.56;10457616;28;20697;-70
2023/10/18 01:32:30;;;;;;;0.80;0.60;;;;;;;1.83;75.04;99954.06;10449151;28;20538;-70
2023/10/18 01:37:32;;;;;;;0.80;0.60;;;;;;;1.80;74.99;99955.38;10464944;28;21982;-70
2023/10/18 01:42:37;;;;;;;0.70;0.57;;;;;;;1.71;75.38;99954.09;10467132;28;20045;-70
2023/10/18 01:47:40;;;;;;;0.57;0.50;;;;;;;1.70;75.62;99944.34;10483076;28;20573;-70
2023/10/18 01:52:42;;;;;;;0.60;0.57;;;;;;;1.68;75.67;99943.75;10473993;28;20221;-70
2023/10/18 01:57:45;;;;;;;1.08;0.60;;;;;;;1.67;76.00;99942.13;10484758;28;20037;-70
2023/10/18 02:02:47;;;;;;;0.68;0.50;;;;;;;1.66;75.79;99940.47;10478165;28;20043;-70
2023/10/18 02:07:49;;;;;;;0.35;0.30;;;;;;;1.65;76.71;99942.38;10476387;28;20523;-70
2023/10/18 02:12:52;;;;;;;0.50;0.50;;;;;;;1.64;76.70;99945.31;10482544;28;20048;-70
2023/10/18 02:17:57;;;;;;;0.55;0.47;;;;;;;1.62;77.02;99945.56;10463165;28;20047;-70
2023/10/18 02:23:10;;;;;;;1.05;0.55;;;;;;;1.60;77.03;99939.56;10477365;28;20041;-70
2023/10/18 02:28:24;;;;;;;2.83;1.65;;;;;;;1.46;77.35;99947.13;10461647;28;20037;-69
2023/10/18 02:33:42;;;;;;;1.70;0.63;;;;;;;1.38;77.95;99952.06;10447488;28;20040;-70
2023/10/18 02:38:44;;;;;;;0.57;0.57;;;;;;;1.48;78.22;99952.28;10464365;28;20047;-71
2023/10/18 02:43:51;;;;;;;0.85;0.50;;;;;;;1.57;77.92;99960.84;10472884;28;20049;-70
2023/10/18 02:48:57;;;;;;;1.10;0.65;;;;;;;1.48;77.50;99955.81;10460606;28;20033;-70
2023/10/18 02:54:22;;;;;;;0.50;0.50;;;;;;;1.50;77.75;99963.69;10458951;28;20404;-70
2023/10/18 02:59:27;;;;;;;0.82;0.70;;;;;;;1.47;78.01;99961.44;10477102;28;20059;-70
2023/10/18 03:04:29;;;;;;;0.80;0.65;;;;;;;1.40;78.44;99967.00;10452094;28;20037;-70
2023/10/18 03:14:56;;;;;;;0.82;0.82;;;;;;;1.57;77.82;99964.38;10489640;28;20037;-70
2023/10/18 03:19:59;;;;;;;1.17;0.80;;;;;;;1.59;77.58;99970.38;10472619;28;20044;-69
2023/10/18 03:25:01;;;;;;;1.05;0.68;;;;;;;1.67;77.87;99959.16;10469722;28;20037;-70
2023/10/18 03:30:17;;;;;;;0.70;0.70;;;;;;;1.74;78.17;99967.16;10454926;28;20128;-70
2023/10/18 03:35:22;;;;;;;1.48;0.80;;;;;;;1.80;78.01;99963.50;10489376;28;20039;-69
2023/10/18 03:40:26;;;;;;;1.10;0.90;;;;;;;1.76;78.11;99965.03;10484121;28;20040;-69
2023/10/18 03:46:06;;;;;;;1.17;0.98;;;;;;;1.75;78.09;99969.63;10448517;28;20511;-69
2023/10/18 03:50:55;;;;;;;1.30;1.08;;;;;;;1.71;77.83;99976.56;10479162;28;20554;-69
2023/10/18 03:55:58;;;;;;;1.23;0.98;;;;;;;1.76;77.55;99975.84;10477746;28;20035;-70
2023/10/18 04:01:05;;;;;;;1.23;0.93;;;;;;;1.71;77.20;99975.72;10480695;28;20047;-70
2023/10/18 04:06:21;;;;;;;1.42;0.90;;;;;;;1.67;77.61;99975.41;10468824;28;20040;-70
2023/10/18 04:11:27;;;;;;;1.25;0.95;;;;;;;1.81;78.16;99975.94;10470408;28;20107;-70
2023/10/18 04:16:30;;;;;;;1.67;0.90;;;;;;;1.91;77.48;99976.16;10458978;28;20032;-70
2023/10/18 04:21:33;;;;;;;1.35;0.95;;;;;;;1.89;76.95;99977.44;10470832;28;20384;-69
2023/10/18 04:26:40;;;;;;;1.52;0.85;;;;;;;1.81;77.88;99970.53;10481498;28;20033;-70
2023/10/18 04:31:44;;;;;;;1.85;1.23;;;;;;;1.83;77.31;99973.81;10480202;28;20040;-69
2023/10/18 04:36:52;;;;;;;1.65;1.13;;;;;;;1.78;77.49;99979.13;10466072;28;20040;-70
2023/10/18 04:41:54;;;;;;;1.73;1.10;;;;;;;1.91;77.71;99978.88;10475528;28;20724;-70
2023/10/18 04:46:59;;;;;;;1.73;1.02;;;;;;;1.95;77.64;99988.16;10477968;28;20052;-70
2023/10/18 04:52:04;;;;;;;2.00;1.20;;;;;;;2.25;78.01;99989.75;10483631;28;20539;-69
2023/10/18 04:57:15;;;;;;;1.40;1.02;;;;;;;2.18;77.24;99994.53;10448981;28;20041;-69
2023/10/18 05:02:17;;;;;;;2.95;1.38;;;;;;;2.18;77.56;99995.34;10460277;28;20049;-70
2023/10/18 05:07:20;;;;;;;1.30;1.13;;;;;;;2.07;77.74;99994.31;10471765;28;20043;-70
2023/10/18 05:12:27;;;;;;;2.92;1.30;;;;;;;2.11;78.38;99998.19;10466290;28;20452;-69
2023/10/18 05:17:35;;;;;;;3.17;1.27;;;;;;;2.16;78.42;99997.47;10445234;28;20028;-70
2023/10/18 05:22:41;;;;;;;1.90;1.30;;;;;;;2.16;77.93;100007.47;10481366;28;20036;-69
2023/10/18 05:33:15;;;;;;;1.13;0.90;;;;;;;2.24;78.44;100007.91;10468403;28;20515;-71
2023/10/18 05:38:40;;;;;;;1.10;0.90;;;;;;;2.14;78.51;100015.00;10443891;28;20028;-71
2023/10/18 05:43:42;;;;;;;1.42;0.80;;;;;;;2.20;78.02;100014.03;10482841;28;20049;-70
2023/10/18 05:48:44;;;;;;;1.17;0.85;;;;;;;2.14;77.92;100010.44;10484756;28;20041;-70
2023/10/18 05:53:47;;;;;;;1.75;0.93;;;;;;;2.22;78.66;100017.31;10482353;28;20032;-70
2023/10/18 05:59:15;;;;;;;2.30;1.25;;;;;;;2.19;78.07;100023.22;10459497;28;20033;-70
2023/10/18 06:04:15;;;;;;;3.22;1.33;;;;;;;2.24;78.80;100016.00;10467024;28;20041;-70
2023/10/18 06:09:27;;;;;;;2.25;0.98;;;;;;;2.15;79.24;100019.38;10447942;28;20543;-69
2023/10/18 06:14:39;;;;;;;2.28;1.05;;;;;;;2.23;79.01;100016.25;10460763;28;20059;-70
2023/10/18 06:19:45;;;;;;;1.98;1.20;;;;;;;2.36;79.21;100016.78;10435839;28;20083;-70
2023/10/18 06:24:48;;;;;;;2.80;1.67;;;;;;;2.34;78.97;100037.88;10483863;28;20045;-69
2023/10/18 06:29:53;;;;;;;3.67;2.13;;;;;;;2.44;78.71;100023.72;10464539;28;20033;-70
2023/10/18 06:34:56;;;;;;;4.45;1.88;;;;;;;2.59;79.10;100029.38;10465593;28;20045;-70
2023/10/18 06:39:58;;;;;;;2.55;1.40;;;;;;;2.54;78.88;100025.78;10468139;28;20033;-70
2023/10/18 06:45:04;;;;;;;4.95;2.05;;;;;;;2.46;79.74;100040.53;10467060;28;20040;-70
2023/10/18 06:50:07;;;;;;;3.47;1.83;;;;;;;2.52;79.44;100042.28;10491326;28;20423;-70
2023/10/18 06:55:15;;;;;;;3.60;1.52;;;;;;;2.48;79.57;100038.41;10492277;28;20045;-71
2023/10/18 07:00:17;;;;;;;;;;;;;;;2.78;79.52;100034.59;10489710;28;20141;-70
2023/10/18 07:05:19;;;;;;;2.78;1.48;;;;;;;2.88;79.08;100040.19;10466629;28;19920;-70
2023/10/18 07:10:52;;;;;;;3.25;1.80;;;;;;;2.91;78.48;100047.81;10490464;28;20043;-71
2023/10/18 07:15:45;;;;;;;3.10;1.60;;;;;;;3.09;77.99;100047.56;10484097;28;20032;-69
2023/10/18 07:20:49;;;;;;;3.50;1.63;;;;;;;3.56;76.83;100045.31;10482541;28;20135;-70
2023/10/18 07:25:51;;;;;;;6.65;2.03;;;;;;;3.71;75.46;100055.56;10488589;28;20135;-70
2023/10/18 07:30:55;;;;;;;3.38;2.28;;;;;;;3.49;75.62;100052.00;10490171;28;20037;-70
2023/10/18 07:36:00;;;;;;;3.10;1.90;;;;;;;3.09;77.52;100071.97;10471017;28;20393;-69
2023/10/18 07:41:03;;;;;;;3.25;1.75;;;;;;;2.90;79.84;100059.72;10472595;28;20056;-69
2023/10/18 07:46:27;;;;;;;3.75;2.05;;;;;;;2.86;81.38;100058.59;10454825;28;20052;-70
2023/10/18 07:51:28;;;;;;;4.72;1.90;;;;;;;2.85;81.66;100065.06;10470050;28;20056;-69
2023/10/18 07:56:31;;;;;;;5.32;2.35;;;;;;;2.70;82.12;100068.31;10454611;28;20056;-69
2023/10/18 08:01:52;;;;;;;5.78;1.92;;;;;;;2.67;83.48;100075.06;10485042;28;20039;-69
2023/10/18 08:06:56;;;;;;;2.65;1.80;;;;;;;2.84;83.24;100072.38;10471899;28;20058;-70
2023/10/18 08:12:05;;;;;;;2.85;1.88;;;;;;;2.88;82.48;100078.13;10489210;28;20044;-70
2023/10/18 08:17:09;;;;;;;4.28;1.80;;;;;;;3.18;82.34;100080.53;10471481;28;20040;-69
2023/10/18 08:27:23;;;;;;;4.03;1.60;;;;;;;3.42;81.07;100087.41;10486933;28;20037;-69
2023/10/18 08:32:32;;;;;;;1.30;1.20;;;;;;;3.32;80.81;100087.28;10488536;28;20048;-69
2023/10/18 08:37:36;;;;;;;1.80;1.20;;;;;;;3.08;81.26;100085.78;10485823;28;20571;-69
2023/10/18 08:42:42;;;;;;;2.15;1.08;;;;;;;3.08;81.23;100091.19;10486286;28;20432;-69
2023/10/18 08:47:49;;;;;;;2.70;1.40;;;;;;;3.15;82.04;100087.28;10451982;28;20049;-70
2023/10/18 08:52:52;;;;;;;3.25;1.40;;;;;;;3.37;80.83;100094.66;10468215;28;20044;-70
2023/10/18 08:57:55;;;;;;;2.80;1.63;;;;;;;3.50;80.53;100088.91;10465876;28;20037;-71
2023/10/18 09:02:59;;;;;;;3.75;1.95;;;;;;;4.06;78.74;100081.56;10484427;28;20050;-71
2023/10/18 09:08:03;;;;;;;1.88;1.40;;;;;;;4.20;77.08;100082.81;10467988;28;20037;-71
2023/10/18 09:18:18;;;;;;;1.98;1.30;;;;;;;4.16;76.45;100097.94;10456876;28;20048;-72
2023/10/18 09:23:22;;;;;;;2.55;1.50;;;;;;;3.96;76.44;100095.78;10476693;28;20045;-71
2023/10/18 09:28:33;;;;;;;1.95;1.23;;;;;;;3.91;74.79;100110.13;10466547;28;20045;-71
2023/10/18 09:33:48;;;;;;;1.90;1.40;;;;;;;3.92;74.33;100119.91;10485289;28;20048;-71
2023/10/18 09:38:53;;;;;;;1.70;1.27;;;;;;;4.06;74.34;100108.69;10468877;28;20036;-71
2023/10/18 09:44:00;;;;;;;1.65;1.20;;;;;;;4.11;72.61;100104.16;10465542;28;20068;-71
2023/10/18 09:49:09;;;;;;;1.77;1.40;;;;;;;4.20;72.20;100116.22;10464842;28;20045;-70
2023/10/18 09:54:13;;;;;;;2.05;1.42;;;;;;;4.10;72.52;100115.25;10466313;28;20041;-70
2023/10/18 09:59:26;;;;;;;2.40;1.55;;;;;;;3.93;73.85;100126.97;10450497;28;20498;-70
2023/10/18 10:04:32;;;;;;;2.00;1.60;;;;;;;4.13;73.07;100112.03;10468216;28;20041;-69
2023/10/18 10:09:38;;;;;;;3.40;1.70;;;;;;;3.98;72.77;100126.22;10479023;28;20041;-69
2023/10/18 10:14:42;;;;;;;2.25;1.20;;;;;;;3.98;73.52;100120.78;10486978;28;20033;-69
2023/10/18 10:19:48;;;;;;;1.88;1.23;;;;;;;4.03;72.51;100137.19;10491726;28;20427;-70
2023/10/18 10:25:04;;;;;;;1.38;1.27;;;;;;;4.01;71.60;100133.91;10463774;28;20041;-70
2023/10/18 10:35:29;;;;;;;1.83;1.45;;;;;;;4.04;72.10;100135.28;10474605;28;20060;-70
2023/10/18 10:50:50;;;;;;;2.65;1.50;;;;;;;4.57;70.33;100131.88;10489902;28;20092;-70
2023/10/18 10:55:54;;;;;;;1.73;1.50;;;;;;;4.37;69.66;100137.09;10473217;28;20037;-70
2023/10/18 11:01:07;;;;;;;1.40;1.25;;;;;;;4.29;70.12;100141.03;10444786;28;20064;-71
2023/10/18 11:06:10;;;;;;;3.00;2.03;;;;;;;4.11;70.35;100141.34;10448986;28;20064;-72
2023/10/18 11:11:14;;;;;;;1.55;1.40;;;;;;;4.14;70.62;100141.66;10431798;28;20417;-72
2023/10/18 11:16:20;;;;;;;1.98;1.50;;;;;;;4.39;69.95;100138.47;10470996;28;20036;-70
2023/10/18 11:21:24;;;;;;;4.18;1.80;;;;;;;4.58;68.19;100143.56;10472162;28;20051;-70
2023/10/18 11:26:28;;;;;;;2.30;1.50;;;;;;;4.56;67.97;100143.00;10471064;28;20037;-71
2023/10/18 11:31:30;;;;;;;3.95;1.77;;;;;;;4.32;68.46;100166.88;10459571;28;20052;-71
2023/10/18 11:36:34;;;;;;;2.67;1.20;;;;;;;4.01;68.70;100165.66;10430248;28;20036;-71
2023/10/18 11:41:37;;;;;;;1.38;0.85;;;;;;;3.87;68.99;100168.69;10447660;28;20049;-70
2023/10/18 11:46:49;;;;;;;2.38;1.60;;;;;;;3.80;68.11;100170.75;10430104;28;20685;-70
2023/10/18 11:51:53;;;;;;;1.70;1.48;;;;;;;3.96;68.60;100162.84;10445491;28;20041;-71
2023/10/18 11:56:56;;;;;;;1.30;1.00;;;;;;;3.97;67.83;100167.19;10487631;28;20044;-70
2023/10/18 12:02:04;;;;;;;2.25;1.38;;;;;;;3.95;67.67;100181.03;10488392;28;20056;-70
2023/10/18 12:07:08;;;;;;;2.13;1.38;;;;;;;4.06;67.42;100182.00;10483597;28;20052;-70
2023/10/18 12:12:13;;;;;;;1.77;1.30;;;;;;;4.14;67.37;100181.56;10488130;28;20033;-70
2023/10/18 12:17:15;;;;;;;1.20;1.10;;;;;;;4.07;66.14;100197.22;10470867;28;20041;-71
2023/10/18 12:22:18;;;;;;;1.73;1.20;;;;;;;3.93;66.55;100189.41;10484447;28;20052;-70
2023/10/18 12:27:36;;;;;;;1.50;1.20;;;;;;;3.97;66.47;100188.91;10482724;28;20045;-70
2023/10/18 12:32:51;;;;;;;;;;;;;;;4.02;65.05;100191.72;10453325;28;20048;-69
2023/10/18 12:37:54;;;;;;;1.75;1.25;;;;;;;4.00;65.47;100196.59;10487000;28;19920;-70
2023/10/18 12:43:00;;;;;;;2.75;1.60;;;;;;;3.97;65.51;100194.34;10469219;28;20067;-69
2023/10/18 12:48:09;;;;;;;2.47;1.60;;;;;;;4.03;63.99;100204.22;10452480;28;20044;-71
2023/10/18 12:58:29;;;;;;;3.70;1.60;;;;;;;4.12;63.95;100210.88;10477691;28;20044;-68
2023/10/18 13:03:34;;;;;;;1.70;1.40;;;;;;;4.20;63.63;100218.59;10460555;28;20040;-71
2023/10/18 13:08:37;;;;;;;1.83;1.10;;;;;;;4.07;62.62;100210.78;10470344;28;20045;-70
2023/10/18 13:13:39;;;;;;;1.27;1.17;;;;;;;4.02;62.56;100216.97;10475533;28;20040;-71
2023/10/18 13:18:42;;;;;;;1.85;1.17;;;;;;;4.05;62.92;100218.38;10441198;28;20488;-71
2023/10/18 13:23:47;;;;;;;1.02;0.93;;;;;;;3.99;63.03;100225.59;10461271;28;20056;-70
2023/10/18 13:28:51;;;;;;;3.83;1.35;;;;;;;3.97;63.45;100226.91;10481421;28;20040;-71
2023/10/18 13:33:53;;;;;;;2.08;1.40;;;;;;;3.76;67.27;100236.63;10467619;28;20067;-71
2023/10/18 13:38:55;;;;;;;4.30;1.60;;;;;;;3.29;73.62;100245.03;10483933;28;20040;-71
2023/10/18 13:43:58;;;;;;;5.47;1.60;;;;;;;3.08;76.64;100251.13;10479443;28;20056;-71
2023/10/18 13:49:00;;;;;;;5.10;1.58;;;;;;;2.97;77.21;100242.00;10468775;28;20411;-71
2023/10/18 13:54:04;;;;;;;2.05;1.40;;;;;;;2.73;77.79;100258.28;10419051;28;20048;-71
2023/10/18 13:59:06;;;;;;;3.17;1.50;;;;;;;2.72;79.60;100262.06;10425204;28;20044;-71
2023/10/18 14:04:13;;;;;;;2.40;1.50;;;;;;;2.73;78.77;100257.47;10456960;28;20045;-71
2023/10/18 14:09:15;;;;;;;1.90;1.50;;;;;;;2.80;78.30;100262.78;10483821;28;20037;-71
2023/10/18 14:14:18;;;;;;;2.05;1.48;;;;;;;2.87;78.14;100264.28;10461593;28;20033;-71
2023/10/18 14:19:20;;;;;;;1.67;1.40;;;;;;;3.01;77.03;100279.22;10466222;28;20056;-71
2023/10/18 14:24:25;;;;;;;2.25;1.45;;;;;;;2.85;76.87;100279.94;10465895;28;20045;-71
2023/10/18 14:29:27;;;;;;;1.80;1.10;;;;;;;2.84;77.54;100282.91;10483270;28;20516;-71
2023/10/18 14:34:29;;;;;;;2.95;1.40;;;;;;;2.78;77.60;100275.72;10483377;28;20037;-71
2023/10/18 14:39:31;;;;;;;2.38;1.35;;;;;;;2.75;77.95;100281.63;10478363;28;20035;-71
2023/10/18 14:44:34;;;;;;;3.08;1.30;;;;;;;2.66;77.70;100283.88;10483277;28;20144;-71
2023/10/18 14:49:39;;;;;;;3.00;1.60;;;;;;;2.72;78.17;100288.34;10482444;28;20033;-70
2023/10/18 14:54:41;;;;;;;3.42;1.85;;;;;;;2.74;78.54;100291.63;10483179;28;20040;-71
2023/10/18 14:59:44;;;;;;;2.70;1.83;;;;;;;2.70;78.30;100302.13;10481946;28;20044;-71
2023/10/18 15:04:52;;;;;;;2.38;1.50;;;;;;;2.68;78.99;100306.13;10479305;28;20056;-69
2023/10/18 15:09:54;;;;;;;4.78;1.48;;;;;;;2.66;78.50;100306.38;10487813;28;20064;-69
2023/10/18 15:14:56;;;;;;;2.20;1.35;;;;;;;2.60;78.91;100318.16;10489987;28;20041;-69
2023/10/18 15:19:59;;;;;;;3.47;1.88;;;;;;;2.46;79.85;100318.63;10476095;28;20048;-70
2023/10/18 15:25:04;;;;;;;2.50;1.40;;;;;;;2.51;79.45;100325.00;10441096;28;20048;-71
2023/10/18 15:30:08;;;;;;;3.95;1.70;;;;;;;2.55;79.45;100325.34;10460627;28;20041;-70
2023/10/18 15:35:12;;;;;;;2.60;1.55;;;;;;;2.33;80.40;100330.53;10481731;28;20052;-70
2023/10/18 15:40:14;;;;;;;2.33;1.80;;;;;;;2.37;80.37;100323.56;10486929;28;20132;-68
2023/10/18 15:45:17;;;;;;;4.75;2.03;;;;;;;2.38;81.04;100327.94;10427829;28;20046;-70
2023/10/18 15:50:20;;;;;;;2.45;1.70;;;;;;;2.32;81.63;100332.41;10479387;28;20029;-68
2023/10/18 15:55:22;;;;;;;2.20;1.67;;;;;;;2.28;82.42;100322.28;10481070;28;20063;-70
2023/10/18 16:00:25;;;;;;;2.85;1.55;;;;;;;2.29;82.56;100332.88;10478926;28;20045;-70
2023/10/18 16:05:27;;;;;;;3.50;1.60;;;;;;;2.22;81.92;100331.31;10480621;28;20538;-70
2023/10/18 16:10:30;;;;;;;2.28;1.73;;;;;;;2.25;83.05;100344.38;10487787;28;20041;-69
2023/10/18 16:15:34;;;;;;;2.25;1.50;;;;;;;2.03;84.07;100350.34;10485092;28;20032;-71
2023/10/18 16:20:37;;;;;;;2.15;1.40;;;;;;;1.94;84.11;100354.47;10479146;28;20427;-71
2023/10/18 16:25:40;;;;;;;2.20;1.50;;;;;;;1.90;84.85;100361.38;10487274;28;20032;-74
2023/10/18 16:30:42;;;;;;;2.13;1.30;;;;;;;1.79;85.46;100360.31;10464425;28;20044;-72
2023/10/18 16:35:45;;;;;;;1.83;1.20;;;;;;;1.79;85.45;100354.91;10451297;28;20041;-76
2023/10/18 16:40:47;;;;;;;2.95;1.95;;;;;;;1.81;85.44;100363.59;10478393;28;20195;-73
2023/10/18 16:45:49;;;;;;;2.95;1.45;;;;;;;1.87;85.64;100358.31;10485662;28;20047;-73
2023/10/18 16:50:52;;;;;;;2.20;1.20;;;;;;;1.92;85.23;100375.53;10486621;28;20036;-73
2023/10/18 16:55:57;;;;;;;2.28;1.50;;;;;;;1.93;85.57;100371.75;10486903;28;20037;-75
2023/10/18 17:01:02;;;;;;;2.97;1.42;;;;;;;1.99;84.79;100373.53;10485309;28;20056;-69
2023/10/18 17:06:08;;;;;;;4.85;1.60;;;;;;;1.97;85.68;100370.25;10485745;28;20037;-72
2023/10/18 17:11:12;;;;;;;2.55;1.73;;;;;;;2.06;85.34;100379.66;10485654;28;20447;-73
2023/10/18 17:16:16;;;;;;;2.33;1.60;;;;;;;2.05;85.70;100379.91;10444993;28;20043;-73
2023/10/18 17:21:18;;;;;;;2.35;1.65;;;;;;;1.98;86.01;100374.59;10455660;28;20037;-73
2023/10/18 17:26:21;;;;;;;2.17;1.50;;;;;;;2.04;85.63;100378.25;10450824;28;20044;-72
2023/10/18 17:31:23;;;;;;;4.53;1.77;;;;;;;2.00;85.42;100383.31;10485375;28;20067;-73
2023/10/18 17:36:26;;;;;;;2.28;1.73;;;;;;;2.00;84.93;100385.19;10466346;28;20036;-72
2023/10/18 17:41:28;;;;;;;3.70;2.08;;;;;;;2.04;85.13;100389.06;10480920;28;20083;-73
2023/10/18 17:46:30;;;;;;;2.85;2.00;;;;;;;2.00;84.90;100386.00;10485176;28;20044;-71
2023/10/18 17:51:36;;;;;;;3.13;1.85;;;;;;;1.87;84.91;100380.78;10447278;28;20072;-74
2023/10/18 17:56:41;;;;;;;2.92;1.95;;;;;;;1.84;84.52;100385.84;10407708;28;20123;-71
2023/10/18 18:01:45;;;;;;;5.75;2.05;;;;;;;1.86;84.61;100379.13;10479206;28;20512;-73
2023/10/18 18:06:47;;;;;;;2.45;1.65;;;;;;;1.78;84.26;100382.19;10450335;28;20049;-76
2023/10/18 18:11:51;;;;;;;3.33;2.10;;;;;;;1.78;84.40;100390.28;10467698;28;20504;-75
2023/10/18 18:16:54;;;;;;;3.90;2.25;;;;;;;1.68;84.25;100392.72;10455042;28;20040;-73
2023/10/18 18:21:56;;;;;;;2.80;1.92;;;;;;;1.64;84.09;100388.81;10447638;28;20073;-71
2023/10/18 18:26:58;;;;;;;3.75;2.30;;;;;;;1.76;84.20;100397.81;10467001;28;20522;-68
2023/10/18 18:32:03;;;;;;;4.32;2.08;;;;;;;1.74;83.87;100392.63;10466393;28;20037;-70
2023/10/18 18:37:07;;;;;;;4.10;2.20;;;;;;;1.60;84.17;100396.56;10459414;28;20554;-69
2023/10/18 18:42:11;;;;;;;3.72;2.35;;;;;;;1.58;84.09;100403.25;10426606;28;20055;-71
2023/10/18 18:47:14;;;;;;;3.50;2.03;;;;;;;1.44;84.51;100398.03;10457791;28;20051;-72
2023/10/18 18:52:30;;;;;;;3.28;2.15;;;;;;;1.44;84.92;100397.19;10450050;28;20044;-73
2023/10/18 18:57:43;;;;;;;4.10;2.40;;;;;;;1.34;84.97;100397.72;10434426;28;20040;-71
2023/10/18 19:02:55;;;;;;;2.88;1.90;;;;;;;1.26;85.41;100408.84;10454592;28;20480;-71
2023/10/18 19:08:04;;;;;;;3.90;1.75;;;;;;;1.18;85.20;100414.53;10411218;28;20043;-71
2023/10/18 19:13:12;;;;;;;2.88;1.73;;;;;;;1.11;84.91;100411.09;10417436;28;20044;-71
2023/10/18 19:18:23;;;;;;;3.63;2.20;;;;;;;1.05;85.34;100417.41;10431368;28;20119;-70
2023/10/18 19:23:43;;;;;;;2.83;1.63;;;;;;;1.11;84.63;100428.13;10459171;22;20051;-66
2023/10/18 19:28:46;;;;;;;4.47;1.70;;;;;;;1.09;84.01;100415.91;10567362;28;20414;-66
2023/10/18 19:33:51;;;;;;;3.67;1.38;;;;;;;1.09;84.02;100419.44;10571751;28;20134;-66
2023/10/18 19:38:55;;;;;;;1.92;1.30;;;;;;;1.16;83.38;100424.75;10573614;28;20041;-66
2023/10/18 19:43:58;;;;;;;1.95;1.20;;;;;;;1.16;82.78;100424.75;10570637;28;20051;-65
2023/10/18 19:49:00;;;;;;;2.60;1.30;;;;;;;1.13;82.41;100427.91;10571113;28;20072;-67
2023/10/18 19:54:03;;;;;;;3.08;1.38;;;;;;;1.05;82.73;100437.16;10575410;22;20435;-66
2023/10/18 19:59:05;;;;;;;1.80;1.30;;;;;;;1.12;82.40;100440.59;10542507;28;20037;-65
2023/10/18 20:04:07;;;;;;;2.15;1.20;;;;;;;1.13;81.80;100442.25;10510743;28;20040;-67
2023/10/18 20:09:10;;;;;;;1.17;1.00;;;;;;;1.07;81.18;100436.91;10555073;22;20056;-63
2023/10/18 20:14:12;;;;;;;2.25;1.02;;;;;;;1.05;80.79;100436.31;10524309;28;20423;-68
2023/10/18 20:19:14;;;;;;;2.05;1.00;;;;;;;1.03;79.90;100435.69;10526886;28;20033;-67
2023/10/18 20:24:18;;;;;;;1.00;0.90;;;;;;;1.05;79.95;100436.31;10542100;22;20056;-66
2023/10/18 20:29:21;;;;;;;1.83;1.10;;;;;;;1.12;79.24;100428.97;10520808;28;20431;-65
2023/10/18 20:34:23;;;;;;;3.70;1.02;;;;;;;1.25;78.64;100428.81;10514816;28;20047;-65
2023/10/18 20:39:25;;;;;;;2.08;1.10;;;;;;;1.09;79.04;100440.22;10537857;22;20044;-68
2023/10/18 20:44:31;;;;;;;2.08;0.77;;;;;;;1.07;78.54;100437.75;10563055;28;20036;-67
2023/10/18 20:49:34;;;;;;;2.83;1.00;;;;;;;1.11;78.23;100443.53;10564356;28;20036;-67
2023/10/18 20:54:37;;;;;;;2.75;0.80;;;;;;;1.06;77.87;100440.69;10552148;22;20044;-68
2023/10/18 20:59:43;;;;;;;2.92;1.10;;;;;;;0.98;78.13;100446.34;10531005;28;20048;-67
2023/10/18 21:04:45;;;;;;;4.35;0.90;;;;;;;0.96;78.01;100457.38;10508685;28;20045;-68
2023/10/18 21:09:47;;;;;;;2.05;0.90;;;;;;;0.98;77.43;100455.28;10525827;22;20059;-70
2023/10/18 21:14:49;;;;;;;1.27;0.90;;;;;;;0.97;77.72;100456.34;10537274;28;20534;-72
2023/10/18 21:19:51;;;;;;;1.08;0.60;;;;;;;0.78;77.59;100458.16;10527907;28;20040;-73
2023/10/18 21:24:56;;;;;;;2.10;1.20;;;;;;;0.88;78.50;100463.91;10559473;22;20081;-68
2023/10/18 21:30:00;;;;;;;2.08;0.90;;;;;;;0.77;78.32;100467.31;10567880;28;20619;-68
2023/10/18 21:35:03;;;;;;;1.48;0.90;;;;;;;0.80;78.17;100468.75;10604212;28;20422;-68
2023/10/18 21:40:09;;;;;;;1.92;0.80;;;;;;;0.70;78.67;100471.13;10569780;28;20043;-68
2023/10/18 21:45:13;;;;;;;1.63;1.05;;;;;;;0.62;79.72;100471.41;10568466;28;20043;-68
2023/10/18 21:50:15;;;;;;;1.45;0.70;;;;;;;0.67;80.02;100466.16;10572453;28;20067;-68
2023/10/18 21:55:17;;;;;;;1.00;0.80;;;;;;;0.75;80.06;100474.00;10574502;22;20053;-70
2023/10/18 22:05:26;;;;;;;1.95;1.00;;;;;;;0.62;81.27;100484.91;10469148;28;20041;-69
2023/10/18 22:10:41;;;;;;;2.10;0.90;;;;;;;0.50;81.39;100490.16;10487335;22;20060;-68
2023/10/18 22:15:47;;;;;;;2.13;1.02;;;;;;;0.40;82.70;100487.97;10479009;28;20029;-68
2023/10/18 22:20:49;;;;;;;1.25;1.02;;;;;;;0.48;82.51;100481.47;10485057;28;20033;-68
2023/10/18 22:25:57;;;;;;;5.55;0.95;;;;;;;0.49;82.78;100485.81;10517308;23;20055;-67
2023/10/18 22:31:00;;;;;;;1.33;0.90;;;;;;;0.36;83.67;100488.63;10589282;28;20047;-67
2023/10/18 22:36:06;;;;;;;1.50;0.85;;;;;;;0.38;84.05;100478.44;10565733;28;20047;-67
2023/10/18 22:41:55;;;;;;;2.30;0.90;;;;;;;0.37;84.56;100477.63;10556145;28;20039;-67
2023/10/18 22:46:47;;;;;;;1.85;1.20;;;;;;;0.28;85.50;100485.13;10555266;28;20048;-67
2023/10/18 22:51:58;;;;;;;1.40;1.08;;;;;;;0.25;86.10;100488.28;10566702;28;20123;-67
2023/10/18 22:57:06;;;;;;;1.42;0.90;;;;;;;0.32;86.46;100490.09;10567343;28;20131;-67
2023/10/18 23:02:10;;;;;;;2.42;0.88;;;;;;;0.29;86.68;100489.47;10549432;28;20601;-66
2023/10/18 23:07:24;;;;;;;0.88;0.73;;;;;;;0.27;86.93;100491.56;10525610;28;20036;-66
2023/10/18 23:12:28;;;;;;;2.10;0.90;;;;;;;0.24;86.85;100486.63;10561387;22;20071;-67
2023/10/18 23:17:31;;;;;;;1.25;0.80;;;;;;;0.20;87.82;100488.09;10591430;28;20046;-66
2023/10/18 23:22:51;;;;;;;1.75;1.10;;;;;;;0.18;88.25;100486.69;10607745;28;20040;-66
2023/10/18 23:33:42;;;;;;;1.00;0.82;;;;;;;0.17;88.89;100483.13;10531946;28;20048;-66
2023/10/18 23:38:44;;;;;;;2.20;1.27;;;;;;;0.16;88.94;100494.13;10532549;28;20045;-67
2023/10/18 23:43:46;;;;;;;2.78;1.20;;;;;;;0.23;89.05;100489.53;10585229;22;20124;-73
2023/10/18 23:53:58;;;;;;;0.70;0.70;;;;;;;0.23;89.05;100490.38;10572791;28;20069;-73
2023/10/18 23:59:01;;;;;;;1.38;0.82;;;;;;;0.15;89.18;100497.88;10584623;22;20060;-66
